sensor_id;sensor_type;location;lat;lon;timestamp;P1;durP1;ratioP1;P2;durP2;ratioP2
29938;SDS011;16799;50.844;5.304;2023-01-28T00:02:15;5.73;;;5.10;;
29938;SDS011;16799;50.844;5.304;2023-01-28T00:04:44;5.57;;;5.17;;
29938;SDS011;16799;50.844;5.304;2023-01-28T00:07:09;6.47;;;5.97;;
29938;SDS011;16799;50.844;5.304;2023-01-28T00:09:35;6.27;;;5.67;;
29938;SDS011;16799;50.844;5.304;2023-01-28T00:12:01;6.80;;;6.20;;
29938;SDS011;16799;50.844;5.304;2023-01-28T00:14:26;5.80;;;5.30;;
29938;SDS011;16799;50.844;5.304;2023-01-28T00:16:52;5.23;;;4.83;;
29938;SDS011;16799;50.844;5.304;2023-01-28T00:19:17;6.27;;;5.67;;
29938;SDS011;16799;50.844;5.304;2023-01-28T00:21:43;6.90;;;6.00;;
29938;SDS011;16799;50.844;5.304;2023-01-28T00:24:09;7.10;;;5.37;;
29938;SDS011;16799;50.844;5.304;2023-01-28T00:26:34;7.40;;;6.70;;
29938;SDS011;16799;50.844;5.304;2023-01-28T00:29:00;6.70;;;6.10;;
29938;SDS011;16799;50.844;5.304;2023-01-28T00:31:27;6.00;;;5.50;;
29938;SDS011;16799;50.844;5.304;2023-01-28T00:33:53;6.17;;;5.70;;
29938;SDS011;16799;50.844;5.304;2023-01-28T00:36:21;7.10;;;6.40;;
29938;SDS011;16799;50.844;5.304;2023-01-28T00:38:51;9.60;;;6.77;;
29938;SDS011;16799;50.844;5.304;2023-01-28T00:41:23;7.63;;;6.73;;
29938;SDS011;16799;50.844;5.304;2023-01-28T00:43:53;6.57;;;5.97;;
29938;SDS011;16799;50.844;5.304;2023-01-28T00:46:20;8.50;;;7.17;;
29938;SDS011;16799;50.844;5.304;2023-01-28T00:48:47;7.67;;;6.93;;
29938;SDS011;16799;50.844;5.304;2023-01-28T00:51:14;7.60;;;6.80;;
29938;SDS011;16799;50.844;5.304;2023-01-28T00:53:44;9.23;;;7.70;;
29938;SDS011;16799;50.844;5.304;2023-01-28T00:56:14;7.40;;;6.60;;
29938;SDS011;16799;50.844;5.304;2023-01-28T00:58:41;7.10;;;6.40;;
29938;SDS011;16799;50.844;5.304;2023-01-28T01:03:40;7.27;;;6.57;;
29938;SDS011;16799;50.844;5.304;2023-01-28T01:06:06;8.30;;;7.50;;
29938;SDS011;16799;50.844;5.304;2023-01-28T01:08:33;8.80;;;6.60;;
29938;SDS011;16799;50.844;5.304;2023-01-28T01:11:02;9.63;;;7.77;;
29938;SDS011;16799;50.844;5.304;2023-01-28T01:13:28;7.23;;;6.53;;
29938;SDS011;16799;50.844;5.304;2023-01-28T01:18:40;11.83;;;8.43;;
29938;SDS011;16799;50.844;5.304;2023-01-28T01:21:10;15.13;;;8.87;;
29938;SDS011;16799;50.844;5.304;2023-01-28T01:23:37;13.40;;;8.70;;
29938;SDS011;16799;50.844;5.304;2023-01-28T01:26:04;9.80;;;7.97;;
29938;SDS011;16799;50.844;5.304;2023-01-28T01:28:30;10.77;;;9.30;;
29938;SDS011;16799;50.844;5.304;2023-01-28T01:31:00;13.00;;;10.20;;
29938;SDS011;16799;50.844;5.304;2023-01-28T01:33:30;12.20;;;9.70;;
29938;SDS011;16799;50.844;5.304;2023-01-28T01:35:56;13.30;;;9.30;;
29938;SDS011;16799;50.844;5.304;2023-01-28T01:38:23;13.97;;;10.90;;
29938;SDS011;16799;50.844;5.304;2023-01-28T01:40:49;20.70;;;12.83;;
29938;SDS011;16799;50.844;5.304;2023-01-28T01:43:15;28.00;;;14.93;;
29938;SDS011;16799;50.844;5.304;2023-01-28T01:45:47;24.53;;;14.27;;
29938;SDS011;16799;50.844;5.304;2023-01-28T01:48:31;19.43;;;13.77;;
29938;SDS011;16799;50.844;5.304;2023-01-28T01:51:03;19.83;;;12.90;;
29938;SDS011;16799;50.844;5.304;2023-01-28T01:53:33;20.20;;;12.80;;
29938;SDS011;16799;50.844;5.304;2023-01-28T01:56:03;18.97;;;12.63;;
29938;SDS011;16799;50.844;5.304;2023-01-28T01:58:34;20.67;;;11.73;;
29938;SDS011;16799;50.844;5.304;2023-01-28T02:01:03;14.80;;;11.90;;
29938;SDS011;16799;50.844;5.304;2023-01-28T02:06:47;17.10;;;11.30;;
29938;SDS011;16799;50.844;5.304;2023-01-28T02:09:34;18.80;;;11.77;;
29938;SDS011;16799;50.844;5.304;2023-01-28T02:14:47;20.13;;;13.00;;
29938;SDS011;16799;50.844;5.304;2023-01-28T02:17:15;18.07;;;12.60;;
29938;SDS011;16799;50.844;5.304;2023-01-28T02:30:47;12.33;;;10.53;;
29938;SDS011;16799;50.844;5.304;2023-01-28T02:36:23;11.93;;;9.90;;
29938;SDS011;16799;50.844;5.304;2023-01-28T02:39:11;16.60;;;11.77;;
29938;SDS011;16799;50.844;5.304;2023-01-28T02:41:43;14.70;;;10.43;;
29938;SDS011;16799;50.844;5.304;2023-01-28T02:44:14;17.57;;;11.73;;
29938;SDS011;16799;50.844;5.304;2023-01-28T02:46:40;12.97;;;10.23;;
29938;SDS011;16799;50.844;5.304;2023-01-28T02:49:27;14.40;;;10.43;;
29938;SDS011;16799;50.844;5.304;2023-01-28T02:58:18;14.37;;;11.27;;
29938;SDS011;16799;50.844;5.304;2023-01-28T03:03:28;19.47;;;11.93;;
29938;SDS011;16799;50.844;5.304;2023-01-28T03:06:13;16.50;;;11.60;;
29938;SDS011;16799;50.844;5.304;2023-01-28T03:11:30;15.73;;;11.30;;
29938;SDS011;16799;50.844;5.304;2023-01-28T03:14:16;17.80;;;11.87;;
29938;SDS011;16799;50.844;5.304;2023-01-28T03:17:02;16.77;;;11.90;;
29938;SDS011;16799;50.844;5.304;2023-01-28T03:19:47;24.00;;;13.90;;
29938;SDS011;16799;50.844;5.304;2023-01-28T03:22:32;14.60;;;10.63;;
29938;SDS011;16799;50.844;5.304;2023-01-28T03:25:22;14.90;;;10.60;;
29938;SDS011;16799;50.844;5.304;2023-01-28T03:28:10;19.47;;;11.57;;
29938;SDS011;16799;50.844;5.304;2023-01-28T03:31:18;14.63;;;11.53;;
29938;SDS011;16799;50.844;5.304;2023-01-28T03:34:02;15.40;;;11.00;;
29938;SDS011;16799;50.844;5.304;2023-01-28T03:36:48;17.43;;;12.60;;
29938;SDS011;16799;50.844;5.304;2023-01-28T03:39:22;25.10;;;12.53;;
29938;SDS011;16799;50.844;5.304;2023-01-28T03:41:57;16.87;;;11.73;;
29938;SDS011;16799;50.844;5.304;2023-01-28T03:44:30;18.60;;;11.43;;
29938;SDS011;16799;50.844;5.304;2023-01-28T03:47:15;15.33;;;10.20;;
29938;SDS011;16799;50.844;5.304;2023-01-28T03:49:42;15.57;;;11.40;;
29938;SDS011;16799;50.844;5.304;2023-01-28T03:52:10;15.70;;;12.07;;
29938;SDS011;16799;50.844;5.304;2023-01-28T03:54:36;16.73;;;12.00;;
29938;SDS011;16799;50.844;5.304;2023-01-28T03:57:02;18.53;;;11.80;;
29938;SDS011;16799;50.844;5.304;2023-01-28T03:59:30;19.10;;;11.53;;
29938;SDS011;16799;50.844;5.304;2023-01-28T04:01:56;21.67;;;12.17;;
29938;SDS011;16799;50.844;5.304;2023-01-28T04:04:22;24.50;;;11.37;;
29938;SDS011;16799;50.844;5.304;2023-01-28T04:06:52;13.87;;;10.40;;
29938;SDS011;16799;50.844;5.304;2023-01-28T04:09:19;19.43;;;12.10;;
29938;SDS011;16799;50.844;5.304;2023-01-28T04:11:46;17.67;;;10.80;;
29938;SDS011;16799;50.844;5.304;2023-01-28T04:14:12;17.37;;;11.23;;
29938;SDS011;16799;50.844;5.304;2023-01-28T04:16:39;17.43;;;12.20;;
29938;SDS011;16799;50.844;5.304;2023-01-28T04:19:06;19.57;;;11.93;;
29938;SDS011;16799;50.844;5.304;2023-01-28T04:21:32;19.03;;;12.50;;
29938;SDS011;16799;50.844;5.304;2023-01-28T04:23:57;16.20;;;10.67;;
29938;SDS011;16799;50.844;5.304;2023-01-28T04:26:23;16.63;;;10.90;;
29938;SDS011;16799;50.844;5.304;2023-01-28T04:28:49;15.90;;;11.57;;
29938;SDS011;16799;50.844;5.304;2023-01-28T04:31:14;19.57;;;11.13;;
29938;SDS011;16799;50.844;5.304;2023-01-28T04:33:40;21.10;;;11.70;;
29938;SDS011;16799;50.844;5.304;2023-01-28T04:36:06;15.87;;;10.27;;
29938;SDS011;16799;50.844;5.304;2023-01-28T04:38:31;16.37;;;10.80;;
29938;SDS011;16799;50.844;5.304;2023-01-28T04:40:57;18.03;;;10.40;;
29938;SDS011;16799;50.844;5.304;2023-01-28T04:43:23;16.70;;;11.70;;
29938;SDS011;16799;50.844;5.304;2023-01-28T04:45:48;17.60;;;11.70;;
29938;SDS011;16799;50.844;5.304;2023-01-28T04:48:14;17.40;;;10.53;;
29938;SDS011;16799;50.844;5.304;2023-01-28T04:50:41;16.37;;;10.30;;
29938;SDS011;16799;50.844;5.304;2023-01-28T04:53:07;21.47;;;11.57;;
29938;SDS011;16799;50.844;5.304;2023-01-28T04:55:33;19.60;;;11.50;;
29938;SDS011;16799;50.844;5.304;2023-01-28T04:57:59;17.53;;;11.73;;
29938;SDS011;16799;50.844;5.304;2023-01-28T05:00:24;18.17;;;12.57;;
29938;SDS011;16799;50.844;5.304;2023-01-28T05:02:50;18.83;;;10.23;;
29938;SDS011;16799;50.844;5.304;2023-01-28T05:05:16;13.90;;;10.40;;
29938;SDS011;16799;50.844;5.304;2023-01-28T05:07:41;18.40;;;11.37;;
29938;SDS011;16799;50.844;5.304;2023-01-28T05:10:07;18.77;;;11.47;;
29938;SDS011;16799;50.844;5.304;2023-01-28T05:12:33;20.43;;;12.07;;
29938;SDS011;16799;50.844;5.304;2023-01-28T05:14:59;18.47;;;12.03;;
29938;SDS011;16799;50.844;5.304;2023-01-28T05:17:26;20.47;;;12.43;;
29938;SDS011;16799;50.844;5.304;2023-01-28T05:19:52;19.60;;;12.37;;
29938;SDS011;16799;50.844;5.304;2023-01-28T05:22:17;14.00;;;9.90;;
29938;SDS011;16799;50.844;5.304;2023-01-28T05:24:43;21.50;;;12.93;;
29938;SDS011;16799;50.844;5.304;2023-01-28T05:27:09;17.70;;;13.00;;
29938;SDS011;16799;50.844;5.304;2023-01-28T05:29:34;19.07;;;12.27;;
29938;SDS011;16799;50.844;5.304;2023-01-28T05:32:00;16.53;;;11.80;;
29938;SDS011;16799;50.844;5.304;2023-01-28T05:34:26;23.70;;;14.50;;
29938;SDS011;16799;50.844;5.304;2023-01-28T05:36:52;19.80;;;12.73;;
29938;SDS011;16799;50.844;5.304;2023-01-28T05:39:17;17.07;;;12.00;;
29938;SDS011;16799;50.844;5.304;2023-01-28T05:41:43;14.20;;;10.00;;
29938;SDS011;16799;50.844;5.304;2023-01-28T05:44:09;15.37;;;10.93;;
29938;SDS011;16799;50.844;5.304;2023-01-28T05:46:35;22.70;;;11.70;;
29938;SDS011;16799;50.844;5.304;2023-01-28T05:49:00;17.70;;;11.90;;
29938;SDS011;16799;50.844;5.304;2023-01-28T05:51:26;13.20;;;10.37;;
29938;SDS011;16799;50.844;5.304;2023-01-28T05:53:52;15.40;;;10.13;;
29938;SDS011;16799;50.844;5.304;2023-01-28T05:56:17;18.60;;;11.77;;
29938;SDS011;16799;50.844;5.304;2023-01-28T05:58:43;14.97;;;11.67;;
29938;SDS011;16799;50.844;5.304;2023-01-28T06:01:11;17.13;;;11.63;;
29938;SDS011;16799;50.844;5.304;2023-01-28T06:03:37;16.10;;;12.00;;
29938;SDS011;16799;50.844;5.304;2023-01-28T06:06:02;14.60;;;11.20;;
29938;SDS011;16799;50.844;5.304;2023-01-28T06:08:28;15.37;;;11.40;;
29938;SDS011;16799;50.844;5.304;2023-01-28T06:10:54;18.10;;;11.20;;
29938;SDS011;16799;50.844;5.304;2023-01-28T06:13:19;17.30;;;11.03;;
29938;SDS011;16799;50.844;5.304;2023-01-28T06:15:47;16.47;;;10.73;;
29938;SDS011;16799;50.844;5.304;2023-01-28T06:18:14;14.10;;;11.13;;
29938;SDS011;16799;50.844;5.304;2023-01-28T06:20:39;16.93;;;11.73;;
29938;SDS011;16799;50.844;5.304;2023-01-28T06:23:05;15.97;;;10.90;;
29938;SDS011;16799;50.844;5.304;2023-01-28T06:25:31;16.00;;;10.80;;
29938;SDS011;16799;50.844;5.304;2023-01-28T06:27:56;16.07;;;11.07;;
29938;SDS011;16799;50.844;5.304;2023-01-28T06:30:22;22.90;;;12.60;;
29938;SDS011;16799;50.844;5.304;2023-01-28T06:32:52;15.50;;;11.13;;
29938;SDS011;16799;50.844;5.304;2023-01-28T06:35:21;17.37;;;11.40;;
29938;SDS011;16799;50.844;5.304;2023-01-28T06:37:47;13.00;;;10.00;;
29938;SDS011;16799;50.844;5.304;2023-01-28T06:40:13;18.27;;;12.57;;
29938;SDS011;16799;50.844;5.304;2023-01-28T06:42:39;16.90;;;11.27;;
29938;SDS011;16799;50.844;5.304;2023-01-28T06:45:05;20.57;;;12.23;;
29938;SDS011;16799;50.844;5.304;2023-01-28T06:47:31;15.37;;;11.63;;
29938;SDS011;16799;50.844;5.304;2023-01-28T06:49:56;18.30;;;12.00;;
29938;SDS011;16799;50.844;5.304;2023-01-28T06:52:22;15.23;;;10.70;;
29938;SDS011;16799;50.844;5.304;2023-01-28T06:54:47;13.70;;;9.80;;
29938;SDS011;16799;50.844;5.304;2023-01-28T06:57:13;17.20;;;11.63;;
29938;SDS011;16799;50.844;5.304;2023-01-28T06:59:39;18.50;;;10.90;;
29938;SDS011;16799;50.844;5.304;2023-01-28T07:02:04;17.67;;;11.10;;
29938;SDS011;16799;50.844;5.304;2023-01-28T07:04:30;12.90;;;10.90;;
29938;SDS011;16799;50.844;5.304;2023-01-28T07:06:56;15.13;;;11.00;;
29938;SDS011;16799;50.844;5.304;2023-01-28T07:09:21;17.53;;;11.57;;
29938;SDS011;16799;50.844;5.304;2023-01-28T07:11:47;18.10;;;11.47;;
29938;SDS011;16799;50.844;5.304;2023-01-28T07:14:13;16.10;;;10.63;;
29938;SDS011;16799;50.844;5.304;2023-01-28T07:16:38;18.47;;;11.67;;
29938;SDS011;16799;50.844;5.304;2023-01-28T07:19:04;12.77;;;10.37;;
29938;SDS011;16799;50.844;5.304;2023-01-28T07:21:30;16.33;;;10.27;;
29938;SDS011;16799;50.844;5.304;2023-01-28T07:23:56;17.63;;;11.57;;
29938;SDS011;16799;50.844;5.304;2023-01-28T07:26:22;16.30;;;10.40;;
29938;SDS011;16799;50.844;5.304;2023-01-28T07:28:48;13.97;;;10.10;;
29938;SDS011;16799;50.844;5.304;2023-01-28T07:31:13;18.67;;;11.47;;
29938;SDS011;16799;50.844;5.304;2023-01-28T07:33:39;16.53;;;11.43;;
29938;SDS011;16799;50.844;5.304;2023-01-28T07:36:05;16.30;;;11.03;;
29938;SDS011;16799;50.844;5.304;2023-01-28T07:38:31;16.40;;;10.47;;
29938;SDS011;16799;50.844;5.304;2023-01-28T07:40:56;17.60;;;11.03;;
29938;SDS011;16799;50.844;5.304;2023-01-28T07:43:22;20.60;;;11.70;;
29938;SDS011;16799;50.844;5.304;2023-01-28T07:45:48;19.50;;;12.07;;
29938;SDS011;16799;50.844;5.304;2023-01-28T07:48:13;15.80;;;10.50;;
29938;SDS011;16799;50.844;5.304;2023-01-28T07:50:39;16.30;;;11.33;;
29938;SDS011;16799;50.844;5.304;2023-01-28T07:53:09;17.00;;;11.27;;
29938;SDS011;16799;50.844;5.304;2023-01-28T07:55:36;13.40;;;10.00;;
29938;SDS011;16799;50.844;5.304;2023-01-28T07:58:03;18.77;;;11.33;;
29938;SDS011;16799;50.844;5.304;2023-01-28T08:00:31;19.77;;;11.90;;
29938;SDS011;16799;50.844;5.304;2023-01-28T08:02:59;20.27;;;11.53;;
29938;SDS011;16799;50.844;5.304;2023-01-28T08:05:29;21.30;;;12.27;;
29938;SDS011;16799;50.844;5.304;2023-01-28T08:08:05;20.50;;;12.77;;
29938;SDS011;16799;50.844;5.304;2023-01-28T08:10:31;17.43;;;11.67;;
29938;SDS011;16799;50.844;5.304;2023-01-28T08:12:57;20.77;;;12.07;;
29938;SDS011;16799;50.844;5.304;2023-01-28T08:15:23;19.63;;;11.00;;
29938;SDS011;16799;50.844;5.304;2023-01-28T08:17:49;24.60;;;12.33;;
29938;SDS011;16799;50.844;5.304;2023-01-28T08:20:17;18.43;;;11.60;;
29938;SDS011;16799;50.844;5.304;2023-01-28T08:22:43;29.50;;;12.23;;
29938;SDS011;16799;50.844;5.304;2023-01-28T08:25:08;19.27;;;11.87;;
29938;SDS011;16799;50.844;5.304;2023-01-28T08:27:34;18.60;;;12.50;;
29938;SDS011;16799;50.844;5.304;2023-01-28T08:30:00;20.53;;;11.13;;
29938;SDS011;16799;50.844;5.304;2023-01-28T08:32:25;18.67;;;12.33;;
29938;SDS011;16799;50.844;5.304;2023-01-28T08:34:53;17.90;;;10.33;;
29938;SDS011;16799;50.844;5.304;2023-01-28T08:37:18;18.07;;;11.37;;
29938;SDS011;16799;50.844;5.304;2023-01-28T08:39:47;18.60;;;11.37;;
29938;SDS011;16799;50.844;5.304;2023-01-28T08:42:12;19.50;;;12.43;;
29938;SDS011;16799;50.844;5.304;2023-01-28T08:44:38;21.57;;;12.00;;
29938;SDS011;16799;50.844;5.304;2023-01-28T08:47:04;22.90;;;12.57;;
29938;SDS011;16799;50.844;5.304;2023-01-28T08:49:29;20.30;;;11.80;;
29938;SDS011;16799;50.844;5.304;2023-01-28T08:51:55;18.20;;;10.97;;
29938;SDS011;16799;50.844;5.304;2023-01-28T08:54:21;15.73;;;11.47;;
29938;SDS011;16799;50.844;5.304;2023-01-28T08:56:46;18.87;;;10.90;;
29938;SDS011;16799;50.844;5.304;2023-01-28T08:59:13;21.67;;;12.30;;
29938;SDS011;16799;50.844;5.304;2023-01-28T09:01:42;23.50;;;13.50;;
29938;SDS011;16799;50.844;5.304;2023-01-28T09:04:08;18.23;;;12.23;;
29938;SDS011;16799;50.844;5.304;2023-01-28T09:06:34;17.60;;;10.70;;
29938;SDS011;16799;50.844;5.304;2023-01-28T09:08:59;17.10;;;11.07;;
29938;SDS011;16799;50.844;5.304;2023-01-28T09:11:26;17.73;;;12.70;;
29938;SDS011;16799;50.844;5.304;2023-01-28T09:13:52;21.50;;;12.87;;
29938;SDS011;16799;50.844;5.304;2023-01-28T09:16:18;18.67;;;11.80;;
29938;SDS011;16799;50.844;5.304;2023-01-28T09:18:44;16.90;;;11.67;;
29938;SDS011;16799;50.844;5.304;2023-01-28T09:21:10;19.80;;;11.30;;
29938;SDS011;16799;50.844;5.304;2023-01-28T09:23:38;22.50;;;11.83;;
29938;SDS011;16799;50.844;5.304;2023-01-28T09:26:04;17.93;;;11.60;;
29938;SDS011;16799;50.844;5.304;2023-01-28T09:28:30;18.13;;;12.80;;
29938;SDS011;16799;50.844;5.304;2023-01-28T09:31:00;19.20;;;11.90;;
29938;SDS011;16799;50.844;5.304;2023-01-28T09:33:30;24.17;;;11.10;;
29938;SDS011;16799;50.844;5.304;2023-01-28T09:36:00;18.97;;;11.80;;
29938;SDS011;16799;50.844;5.304;2023-01-28T09:38:28;20.43;;;12.60;;
29938;SDS011;16799;50.844;5.304;2023-01-28T09:40:55;18.80;;;12.43;;
29938;SDS011;16799;50.844;5.304;2023-01-28T09:45:57;20.03;;;12.60;;
29938;SDS011;16799;50.844;5.304;2023-01-28T09:48:28;19.27;;;11.63;;
29938;SDS011;16799;50.844;5.304;2023-01-28T09:51:02;18.77;;;11.93;;
29938;SDS011;16799;50.844;5.304;2023-01-28T09:53:35;20.33;;;12.57;;
29938;SDS011;16799;50.844;5.304;2023-01-28T09:56:12;21.73;;;12.67;;
29938;SDS011;16799;50.844;5.304;2023-01-28T09:58:41;19.07;;;12.00;;
29938;SDS011;16799;50.844;5.304;2023-01-28T10:20:06;18.33;;;12.10;;
29938;SDS011;16799;50.844;5.304;2023-01-28T10:22:36;14.77;;;11.37;;
29938;SDS011;16799;50.844;5.304;2023-01-28T10:25:14;17.43;;;11.60;;
29938;SDS011;16799;50.844;5.304;2023-01-28T10:27:43;14.47;;;11.57;;
29938;SDS011;16799;50.844;5.304;2023-01-28T10:35:40;13.63;;;9.30;;
29938;SDS011;16799;50.844;5.304;2023-01-28T10:38:08;14.30;;;10.80;;
29938;SDS011;16799;50.844;5.304;2023-01-28T10:40:39;13.57;;;10.10;;
29938;SDS011;16799;50.844;5.304;2023-01-28T10:43:06;14.83;;;10.27;;
29938;SDS011;16799;50.844;5.304;2023-01-28T10:45:51;16.23;;;10.07;;
29938;SDS011;16799;50.844;5.304;2023-01-28T10:48:59;10.70;;;8.83;;
29938;SDS011;16799;50.844;5.304;2023-01-28T10:51:36;11.23;;;8.60;;
29938;SDS011;16799;50.844;5.304;2023-01-28T10:54:26;13.23;;;10.20;;
29938;SDS011;16799;50.844;5.304;2023-01-28T10:56:52;9.13;;;7.90;;
29938;SDS011;16799;50.844;5.304;2023-01-28T10:59:25;10.97;;;8.97;;
29938;SDS011;16799;50.844;5.304;2023-01-28T11:01:53;13.57;;;8.90;;
29938;SDS011;16799;50.844;5.304;2023-01-28T11:04:29;11.53;;;8.80;;
29938;SDS011;16799;50.844;5.304;2023-01-28T11:09:29;11.00;;;8.43;;
29938;SDS011;16799;50.844;5.304;2023-01-28T11:14:55;8.87;;;7.97;;
29938;SDS011;16799;50.844;5.304;2023-01-28T11:17:23;10.40;;;7.80;;
29938;SDS011;16799;50.844;5.304;2023-01-28T11:19:51;10.87;;;8.97;;
29938;SDS011;16799;50.844;5.304;2023-01-28T11:25:05;11.73;;;9.03;;
29938;SDS011;16799;50.844;5.304;2023-01-28T11:27:38;8.03;;;7.23;;
29938;SDS011;16799;50.844;5.304;2023-01-28T11:30:04;12.27;;;9.23;;
29938;SDS011;16799;50.844;5.304;2023-01-28T11:32:40;10.20;;;8.73;;
29938;SDS011;16799;50.844;5.304;2023-01-28T11:35:06;11.43;;;8.40;;
29938;SDS011;16799;50.844;5.304;2023-01-28T11:37:32;16.27;;;10.47;;
29938;SDS011;16799;50.844;5.304;2023-01-28T11:40:15;12.87;;;9.67;;
29938;SDS011;16799;50.844;5.304;2023-01-28T11:42:45;16.03;;;9.90;;
29938;SDS011;16799;50.844;5.304;2023-01-28T11:45:17;17.40;;;9.13;;
29938;SDS011;16799;50.844;5.304;2023-01-28T11:50:54;16.00;;;10.17;;
29938;SDS011;16799;50.844;5.304;2023-01-28T11:59:27;14.23;;;10.87;;
29938;SDS011;16799;50.844;5.304;2023-01-28T12:10:02;11.90;;;9.10;;
29938;SDS011;16799;50.844;5.304;2023-01-28T12:21:09;9.90;;;8.40;;
29938;SDS011;16799;50.844;5.304;2023-01-28T12:32:02;14.73;;;9.77;;
29938;SDS011;16799;50.844;5.304;2023-01-28T12:34:53;14.17;;;10.30;;
29938;SDS011;16799;50.844;5.304;2023-01-28T12:43:00;13.83;;;8.70;;
29938;SDS011;16799;50.844;5.304;2023-01-28T12:45:53;11.97;;;9.00;;
29938;SDS011;16799;50.844;5.304;2023-01-28T12:48:24;12.27;;;9.20;;
29938;SDS011;16799;50.844;5.304;2023-01-28T12:53:39;15.13;;;9.20;;
29938;SDS011;16799;50.844;5.304;2023-01-28T12:56:30;12.73;;;9.50;;
29938;SDS011;16799;50.844;5.304;2023-01-28T13:00:05;11.93;;;10.07;;
29938;SDS011;16799;50.844;5.304;2023-01-28T13:07:32;10.83;;;8.77;;
29938;SDS011;16799;50.844;5.304;2023-01-28T13:10:49;10.33;;;9.13;;
29938;SDS011;16799;50.844;5.304;2023-01-28T13:12:53;11.60;;;8.77;;
29938;SDS011;16799;50.844;5.304;2023-01-28T13:15:21;18.43;;;8.70;;
29938;SDS011;16799;50.844;5.304;2023-01-28T13:23:05;11.50;;;9.60;;
29938;SDS011;16799;50.844;5.304;2023-01-28T13:25:47;13.73;;;9.47;;
29938;SDS011;16799;50.844;5.304;2023-01-28T13:28:29;20.23;;;9.77;;
29938;SDS011;16799;50.844;5.304;2023-01-28T13:31:00;10.83;;;9.00;;
29938;SDS011;16799;50.844;5.304;2023-01-28T13:33:35;12.77;;;9.97;;
29938;SDS011;16799;50.844;5.304;2023-01-28T13:39:02;11.93;;;10.40;;
29938;SDS011;16799;50.844;5.304;2023-01-28T13:41:38;10.67;;;9.57;;
29938;SDS011;16799;50.844;5.304;2023-01-28T13:44:20;10.50;;;9.50;;
29938;SDS011;16799;50.844;5.304;2023-01-28T13:46:55;12.43;;;9.70;;
29938;SDS011;16799;50.844;5.304;2023-01-28T13:49:37;11.10;;;9.00;;
29938;SDS011;16799;50.844;5.304;2023-01-28T13:54:35;15.63;;;10.60;;
29938;SDS011;16799;50.844;5.304;2023-01-28T13:57:13;16.43;;;11.63;;
29938;SDS011;16799;50.844;5.304;2023-01-28T14:19:02;12.77;;;8.90;;
29938;SDS011;16799;50.844;5.304;2023-01-28T14:21:31;14.73;;;10.07;;
29938;SDS011;16799;50.844;5.304;2023-01-28T14:23:59;12.07;;;9.47;;
29938;SDS011;16799;50.844;5.304;2023-01-28T14:32:15;12.70;;;10.73;;
29938;SDS011;16799;50.844;5.304;2023-01-28T14:34:46;10.60;;;9.50;;
29938;SDS011;16799;50.844;5.304;2023-01-28T14:37:14;15.60;;;11.43;;
29938;SDS011;16799;50.844;5.304;2023-01-28T14:39:51;18.03;;;11.70;;
29938;SDS011;16799;50.844;5.304;2023-01-28T14:42:23;17.73;;;14.07;;
29938;SDS011;16799;50.844;5.304;2023-01-28T14:47:47;19.33;;;12.00;;
29938;SDS011;16799;50.844;5.304;2023-01-28T14:50:42;13.50;;;10.27;;
29938;SDS011;16799;50.844;5.304;2023-01-28T14:56:35;14.33;;;10.53;;
29938;SDS011;16799;50.844;5.304;2023-01-28T15:05:08;14.70;;;10.70;;
29938;SDS011;16799;50.844;5.304;2023-01-28T15:07:35;14.40;;;11.80;;
29938;SDS011;16799;50.844;5.304;2023-01-28T15:10:02;17.60;;;12.47;;
29938;SDS011;16799;50.844;5.304;2023-01-28T15:12:37;21.43;;;13.20;;
29938;SDS011;16799;50.844;5.304;2023-01-28T15:15:13;20.00;;;11.77;;
29938;SDS011;16799;50.844;5.304;2023-01-28T15:17:41;14.80;;;11.10;;
29938;SDS011;16799;50.844;5.304;2023-01-28T15:20:07;18.07;;;11.37;;
29938;SDS011;16799;50.844;5.304;2023-01-28T15:22:34;15.10;;;10.93;;
29938;SDS011;16799;50.844;5.304;2023-01-28T15:24:59;15.43;;;10.67;;
29938;SDS011;16799;50.844;5.304;2023-01-28T15:27:28;12.37;;;9.70;;
29938;SDS011;16799;50.844;5.304;2023-01-28T15:29:56;18.57;;;10.97;;
29938;SDS011;16799;50.844;5.304;2023-01-28T15:32:25;16.63;;;11.37;;
29938;SDS011;16799;50.844;5.304;2023-01-28T15:34:52;18.27;;;11.37;;
29938;SDS011;16799;50.844;5.304;2023-01-28T15:37:19;17.97;;;12.57;;
29938;SDS011;16799;50.844;5.304;2023-01-28T15:39:45;13.93;;;9.53;;
29938;SDS011;16799;50.844;5.304;2023-01-28T15:42:17;16.20;;;10.63;;
29938;SDS011;16799;50.844;5.304;2023-01-28T15:44:45;13.90;;;11.17;;
29938;SDS011;16799;50.844;5.304;2023-01-28T15:47:19;14.57;;;10.57;;
29938;SDS011;16799;50.844;5.304;2023-01-28T15:49:52;15.17;;;10.97;;
29938;SDS011;16799;50.844;5.304;2023-01-28T15:52:20;17.20;;;11.37;;
29938;SDS011;16799;50.844;5.304;2023-01-28T15:54:53;18.20;;;12.73;;
29938;SDS011;16799;50.844;5.304;2023-01-28T15:57:29;14.13;;;11.23;;
29938;SDS011;16799;50.844;5.304;2023-01-28T16:00:29;19.83;;;12.57;;
29938;SDS011;16799;50.844;5.304;2023-01-28T16:02:50;20.73;;;12.03;;
29938;SDS011;16799;50.844;5.304;2023-01-28T16:08:44;12.83;;;10.37;;
29938;SDS011;16799;50.844;5.304;2023-01-28T16:11:20;17.47;;;10.77;;
29938;SDS011;16799;50.844;5.304;2023-01-28T16:13:51;21.10;;;10.70;;
29938;SDS011;16799;50.844;5.304;2023-01-28T16:16:24;20.03;;;12.17;;
29938;SDS011;16799;50.844;5.304;2023-01-28T16:18:56;21.17;;;13.07;;
29938;SDS011;16799;50.844;5.304;2023-01-28T16:21:23;12.37;;;10.07;;
29938;SDS011;16799;50.844;5.304;2023-01-28T16:26:58;16.63;;;11.70;;
29938;SDS011;16799;50.844;5.304;2023-01-28T16:29:26;17.47;;;11.73;;
29938;SDS011;16799;50.844;5.304;2023-01-28T16:31:53;17.03;;;10.93;;
29938;SDS011;16799;50.844;5.304;2023-01-28T16:34:19;14.20;;;10.03;;
29938;SDS011;16799;50.844;5.304;2023-01-28T16:36:45;24.23;;;12.63;;
29938;SDS011;16799;50.844;5.304;2023-01-28T16:39:11;16.30;;;11.47;;
29938;SDS011;16799;50.844;5.304;2023-01-28T16:41:40;18.80;;;12.67;;
29938;SDS011;16799;50.844;5.304;2023-01-28T16:44:11;16.57;;;11.10;;
29938;SDS011;16799;50.844;5.304;2023-01-28T16:46:37;15.30;;;10.73;;
29938;SDS011;16799;50.844;5.304;2023-01-28T16:49:03;18.23;;;11.60;;
29938;SDS011;16799;50.844;5.304;2023-01-28T16:51:29;18.33;;;11.50;;
29938;SDS011;16799;50.844;5.304;2023-01-28T16:53:55;18.43;;;11.20;;
29938;SDS011;16799;50.844;5.304;2023-01-28T16:56:22;17.30;;;11.90;;
29938;SDS011;16799;50.844;5.304;2023-01-28T16:58:50;27.73;;;11.53;;
29938;SDS011;16799;50.844;5.304;2023-01-28T17:01:16;20.17;;;11.90;;
29938;SDS011;16799;50.844;5.304;2023-01-28T17:03:41;26.30;;;11.07;;
29938;SDS011;16799;50.844;5.304;2023-01-28T17:06:07;21.70;;;13.37;;
29938;SDS011;16799;50.844;5.304;2023-01-28T17:08:35;21.63;;;13.70;;
29938;SDS011;16799;50.844;5.304;2023-01-28T17:11:01;24.43;;;15.03;;
29938;SDS011;16799;50.844;5.304;2023-01-28T17:13:27;18.70;;;12.10;;
29938;SDS011;16799;50.844;5.304;2023-01-28T17:15:52;28.00;;;13.77;;
29938;SDS011;16799;50.844;5.304;2023-01-28T17:18:18;25.97;;;15.20;;
29938;SDS011;16799;50.844;5.304;2023-01-28T17:20:44;40.87;;;15.93;;
29938;SDS011;16799;50.844;5.304;2023-01-28T17:23:13;24.17;;;14.17;;
29938;SDS011;16799;50.844;5.304;2023-01-28T17:25:40;22.70;;;13.73;;
29938;SDS011;16799;50.844;5.304;2023-01-28T17:28:07;19.53;;;13.20;;
29938;SDS011;16799;50.844;5.304;2023-01-28T17:30:36;21.40;;;12.13;;
29938;SDS011;16799;50.844;5.304;2023-01-28T17:33:03;23.43;;;13.80;;
29938;SDS011;16799;50.844;5.304;2023-01-28T17:35:29;20.83;;;12.90;;